sensor_id;sensor_type;location;lat;lon;timestamp;P1;durP1;ratioP1;P2;durP2;ratioP2
21251;SDS011;10784;50.578;17.878;2022-11-12T00:01:41;28.55;;;11.20;;
21251;SDS011;10784;50.578;17.878;2022-11-12T00:04:32;25.33;;;9.88;;
21251;SDS011;10784;50.578;17.878;2022-11-12T00:07:23;22.20;;;10.48;;
21251;SDS011;10784;50.578;17.878;2022-11-12T00:10:15;27.52;;;10.88;;
21251;SDS011;10784;50.578;17.878;2022-11-12T00:13:06;18.35;;;10.18;;
21251;SDS011;10784;50.578;17.878;2022-11-12T00:15:57;29.27;;;10.18;;
21251;SDS011;10784;50.578;17.878;2022-11-12T00:18:49;38.83;;;14.07;;
21251;SDS011;10784;50.578;17.878;2022-11-12T00:21:40;25.13;;;11.80;;
21251;SDS011;10784;50.578;17.878;2022-11-12T00:24:31;27.55;;;12.35;;
21251;SDS011;10784;50.578;17.878;2022-11-12T00:27:22;26.88;;;12.98;;
21251;SDS011;10784;50.578;17.878;2022-11-12T00:30:13;28.20;;;10.83;;
21251;SDS011;10784;50.578;17.878;2022-11-12T00:33:04;24.92;;;10.30;;
21251;SDS011;10784;50.578;17.878;2022-11-12T00:35:57;25.27;;;10.80;;
21251;SDS011;10784;50.578;17.878;2022-11-12T00:38:48;32.80;;;10.43;;
21251;SDS011;10784;50.578;17.878;2022-11-12T00:41:39;21.25;;;9.93;;
21251;SDS011;10784;50.578;17.878;2022-11-12T00:44:31;24.60;;;9.38;;
21251;SDS011;10784;50.578;17.878;2022-11-12T00:47:22;21.73;;;9.95;;
21251;SDS011;10784;50.578;17.878;2022-11-12T00:50:13;21.83;;;9.52;;
21251;SDS011;10784;50.578;17.878;2022-11-12T00:53:06;19.63;;;8.15;;
21251;SDS011;10784;50.578;17.878;2022-11-12T00:56:03;21.83;;;9.40;;
21251;SDS011;10784;50.578;17.878;2022-11-12T00:58:56;20.88;;;7.55;;
21251;SDS011;10784;50.578;17.878;2022-11-12T01:01:47;18.45;;;8.50;;
21251;SDS011;10784;50.578;17.878;2022-11-12T01:04:38;27.73;;;10.02;;
21251;SDS011;10784;50.578;17.878;2022-11-12T01:07:29;21.85;;;8.88;;
21251;SDS011;10784;50.578;17.878;2022-11-12T01:10:21;22.15;;;6.93;;
21251;SDS011;10784;50.578;17.878;2022-11-12T01:13:11;26.67;;;9.02;;
21251;SDS011;10784;50.578;17.878;2022-11-12T01:16:06;31.20;;;9.32;;
21251;SDS011;10784;50.578;17.878;2022-11-12T01:18:58;18.02;;;7.03;;
21251;SDS011;10784;50.578;17.878;2022-11-12T01:21:50;14.05;;;7.53;;
21251;SDS011;10784;50.578;17.878;2022-11-12T01:53:14;17.05;;;6.85;;
21251;SDS011;10784;50.578;17.878;2022-11-12T01:56:05;18.40;;;7.32;;
21251;SDS011;10784;50.578;17.878;2022-11-12T02:07:31;15.13;;;6.72;;
21251;SDS011;10784;50.578;17.878;2022-11-12T02:10:23;12.35;;;6.18;;
21251;SDS011;10784;50.578;17.878;2022-11-12T02:13:14;16.27;;;5.63;;
21251;SDS011;10784;50.578;17.878;2022-11-12T02:16:26;15.80;;;4.80;;
21251;SDS011;10784;50.578;17.878;2022-11-12T02:19:18;17.10;;;5.78;;
21251;SDS011;10784;50.578;17.878;2022-11-12T02:22:09;17.67;;;5.63;;
21251;SDS011;10784;50.578;17.878;2022-11-12T02:25:01;12.57;;;6.82;;
21251;SDS011;10784;50.578;17.878;2022-11-12T02:27:52;12.03;;;6.90;;
21251;SDS011;10784;50.578;17.878;2022-11-12T02:30:45;15.23;;;6.95;;
21251;SDS011;10784;50.578;17.878;2022-11-12T02:33:37;27.70;;;10.68;;
21251;SDS011;10784;50.578;17.878;2022-11-12T02:36:28;28.13;;;10.03;;
21251;SDS011;10784;50.578;17.878;2022-11-12T02:39:19;20.60;;;9.35;;
21251;SDS011;10784;50.578;17.878;2022-11-12T02:42:10;31.65;;;11.00;;
21251;SDS011;10784;50.578;17.878;2022-11-12T02:45:01;25.40;;;8.77;;
21251;SDS011;10784;50.578;17.878;2022-11-12T02:47:53;18.08;;;6.05;;
21251;SDS011;10784;50.578;17.878;2022-11-12T02:50:45;17.45;;;6.20;;
21251;SDS011;10784;50.578;17.878;2022-11-12T02:53:37;17.63;;;8.93;;
21251;SDS011;10784;50.578;17.878;2022-11-12T02:56:28;27.38;;;7.43;;
21251;SDS011;10784;50.578;17.878;2022-11-12T02:59:19;14.07;;;6.55;;
21251;SDS011;10784;50.578;17.878;2022-11-12T03:02:10;16.25;;;5.38;;
21251;SDS011;10784;50.578;17.878;2022-11-12T03:05:02;10.00;;;5.07;;
21251;SDS011;10784;50.578;17.878;2022-11-12T03:07:56;14.05;;;5.47;;
21251;SDS011;10784;50.578;17.878;2022-11-12T03:10:48;13.70;;;6.07;;
21251;SDS011;10784;50.578;17.878;2022-11-12T03:13:39;14.90;;;6.50;;
21251;SDS011;10784;50.578;17.878;2022-11-12T03:16:30;19.33;;;5.32;;
21251;SDS011;10784;50.578;17.878;2022-11-12T03:19:21;11.30;;;6.13;;
21251;SDS011;10784;50.578;17.878;2022-11-12T03:22:13;10.98;;;5.68;;
21251;SDS011;10784;50.578;17.878;2022-11-12T03:25:04;10.13;;;4.80;;
21251;SDS011;10784;50.578;17.878;2022-11-12T03:28:00;9.95;;;4.45;;
21251;SDS011;10784;50.578;17.878;2022-11-12T03:30:55;16.08;;;5.75;;
21251;SDS011;10784;50.578;17.878;2022-11-12T03:33:46;10.15;;;5.20;;
21251;SDS011;10784;50.578;17.878;2022-11-12T03:36:37;14.63;;;5.10;;
21251;SDS011;10784;50.578;17.878;2022-11-12T03:39:29;8.70;;;4.80;;
21251;SDS011;10784;50.578;17.878;2022-11-12T03:42:20;15.95;;;6.72;;
21251;SDS011;10784;50.578;17.878;2022-11-12T03:45:11;20.35;;;5.70;;
21251;SDS011;10784;50.578;17.878;2022-11-12T03:48:02;14.87;;;4.67;;
21251;SDS011;10784;50.578;17.878;2022-11-12T03:50:57;14.48;;;5.68;;
21251;SDS011;10784;50.578;17.878;2022-11-12T03:53:48;7.10;;;4.45;;
21251;SDS011;10784;50.578;17.878;2022-11-12T03:56:39;9.55;;;5.00;;
21251;SDS011;10784;50.578;17.878;2022-11-12T03:59:30;7.72;;;4.68;;
21251;SDS011;10784;50.578;17.878;2022-11-12T04:02:22;11.55;;;4.55;;
21251;SDS011;10784;50.578;17.878;2022-11-12T04:05:15;10.60;;;4.90;;
21251;SDS011;10784;50.578;17.878;2022-11-12T04:08:25;10.07;;;4.93;;
21251;SDS011;10784;50.578;17.878;2022-11-12T04:11:28;7.88;;;4.18;;
21251;SDS011;10784;50.578;17.878;2022-11-12T04:14:19;14.98;;;5.20;;
21251;SDS011;10784;50.578;17.878;2022-11-12T04:17:10;9.52;;;3.95;;
21251;SDS011;10784;50.578;17.878;2022-11-12T04:20:20;11.10;;;4.25;;
21251;SDS011;10784;50.578;17.878;2022-11-12T04:23:30;12.00;;;4.60;;
21251;SDS011;10784;50.578;17.878;2022-11-12T04:26:21;8.63;;;3.93;;
21251;SDS011;10784;50.578;17.878;2022-11-12T04:29:15;18.00;;;6.07;;
21251;SDS011;10784;50.578;17.878;2022-11-12T04:32:28;6.13;;;3.72;;
21251;SDS011;10784;50.578;17.878;2022-11-12T04:35:19;12.13;;;4.90;;
21251;SDS011;10784;50.578;17.878;2022-11-12T04:38:11;8.90;;;3.95;;
21251;SDS011;10784;50.578;17.878;2022-11-12T04:41:02;15.48;;;4.80;;
21251;SDS011;10784;50.578;17.878;2022-11-12T05:45:01;6.63;;;4.88;;
21251;SDS011;10784;50.578;17.878;2022-11-12T05:47:52;14.90;;;6.82;;
21251;SDS011;10784;50.578;17.878;2022-11-12T05:50:43;13.15;;;6.22;;
21251;SDS011;10784;50.578;17.878;2022-11-12T05:53:54;16.87;;;5.10;;
21251;SDS011;10784;50.578;17.878;2022-11-12T05:56:45;13.23;;;6.40;;
21251;SDS011;10784;50.578;17.878;2022-11-12T05:59:36;12.43;;;4.83;;
21251;SDS011;10784;50.578;17.878;2022-11-12T06:02:27;13.45;;;5.65;;
21251;SDS011;10784;50.578;17.878;2022-11-12T06:05:19;26.27;;;7.65;;
21251;SDS011;10784;50.578;17.878;2022-11-12T06:08:10;11.82;;;5.35;;
21251;SDS011;10784;50.578;17.878;2022-11-12T06:11:01;14.77;;;5.57;;
21251;SDS011;10784;50.578;17.878;2022-11-12T06:13:52;13.57;;;5.68;;
21251;SDS011;10784;50.578;17.878;2022-11-12T06:16:43;12.57;;;4.85;;
21251;SDS011;10784;50.578;17.878;2022-11-12T06:19:34;14.98;;;6.95;;
21251;SDS011;10784;50.578;17.878;2022-11-12T06:22:26;21.58;;;6.88;;
21251;SDS011;10784;50.578;17.878;2022-11-12T06:25:17;14.87;;;6.87;;
21251;SDS011;10784;50.578;17.878;2022-11-12T06:28:08;27.08;;;9.98;;
21251;SDS011;10784;50.578;17.878;2022-11-12T06:30:59;56.85;;;15.63;;
21251;SDS011;10784;50.578;17.878;2022-11-12T06:33:51;70.38;;;17.23;;
21251;SDS011;10784;50.578;17.878;2022-11-12T06:39:33;26.98;;;8.80;;
21251;SDS011;10784;50.578;17.878;2022-11-12T06:42:24;12.38;;;5.85;;
21251;SDS011;10784;50.578;17.878;2022-11-12T06:45:15;11.35;;;5.88;;
21251;SDS011;10784;50.578;17.878;2022-11-12T06:48:06;9.97;;;4.77;;
21251;SDS011;10784;50.578;17.878;2022-11-12T06:51:03;11.25;;;5.75;;
21251;SDS011;10784;50.578;17.878;2022-11-12T06:53:55;12.55;;;5.70;;
21251;SDS011;10784;50.578;17.878;2022-11-12T06:56:46;13.98;;;5.38;;
21251;SDS011;10784;50.578;17.878;2022-11-12T06:59:37;16.20;;;5.97;;
21251;SDS011;10784;50.578;17.878;2022-11-12T07:02:28;19.67;;;6.57;;
21251;SDS011;10784;50.578;17.878;2022-11-12T07:05:19;13.40;;;5.82;;
21251;SDS011;10784;50.578;17.878;2022-11-12T07:08:11;34.95;;;6.82;;
21251;SDS011;10784;50.578;17.878;2022-11-12T07:11:02;11.57;;;5.93;;
21251;SDS011;10784;50.578;17.878;2022-11-12T07:13:53;18.75;;;4.93;;
21251;SDS011;10784;50.578;17.878;2022-11-12T07:16:44;15.20;;;6.60;;
21251;SDS011;10784;50.578;17.878;2022-11-12T07:19:35;13.40;;;5.40;;
21251;SDS011;10784;50.578;17.878;2022-11-12T07:22:26;13.48;;;5.07;;
21251;SDS011;10784;50.578;17.878;2022-11-12T07:25:17;15.60;;;4.75;;
21251;SDS011;10784;50.578;17.878;2022-11-12T07:28:08;13.07;;;4.85;;
21251;SDS011;10784;50.578;17.878;2022-11-12T07:31:01;16.17;;;5.88;;
21251;SDS011;10784;50.578;17.878;2022-11-12T07:33:52;7.57;;;4.97;;
21251;SDS011;10784;50.578;17.878;2022-11-12T07:36:44;16.17;;;5.38;;
21251;SDS011;10784;50.578;17.878;2022-11-12T07:39:35;16.58;;;5.15;;
21251;SDS011;10784;50.578;17.878;2022-11-12T07:42:26;13.15;;;5.80;;
21251;SDS011;10784;50.578;17.878;2022-11-12T07:45:17;8.10;;;4.85;;
21251;SDS011;10784;50.578;17.878;2022-11-12T07:48:08;10.57;;;5.47;;
21251;SDS011;10784;50.578;17.878;2022-11-12T07:51:02;14.60;;;5.70;;
21251;SDS011;10784;50.578;17.878;2022-11-12T07:53:55;11.40;;;5.28;;
21251;SDS011;10784;50.578;17.878;2022-11-12T07:56:48;16.85;;;5.22;;
21251;SDS011;10784;50.578;17.878;2022-11-12T07:59:40;10.38;;;3.90;;
21251;SDS011;10784;50.578;17.878;2022-11-12T08:02:35;16.42;;;5.90;;
21251;SDS011;10784;50.578;17.878;2022-11-12T08:05:27;11.17;;;5.33;;
21251;SDS011;10784;50.578;17.878;2022-11-12T08:08:17;13.77;;;5.55;;
21251;SDS011;10784;50.578;17.878;2022-11-12T08:11:09;20.38;;;5.82;;
21251;SDS011;10784;50.578;17.878;2022-11-12T08:14:00;29.30;;;10.00;;
21251;SDS011;10784;50.578;17.878;2022-11-12T08:16:51;29.07;;;9.13;;
21251;SDS011;10784;50.578;17.878;2022-11-12T08:19:42;38.17;;;12.63;;
21251;SDS011;10784;50.578;17.878;2022-11-12T08:22:33;32.43;;;13.63;;
21251;SDS011;10784;50.578;17.878;2022-11-12T08:25:24;24.83;;;10.20;;
21251;SDS011;10784;50.578;17.878;2022-11-12T08:28:16;13.15;;;7.30;;
21251;SDS011;10784;50.578;17.878;2022-11-12T08:31:17;17.00;;;7.35;;
21251;SDS011;10784;50.578;17.878;2022-11-12T08:34:08;9.05;;;4.78;;
21251;SDS011;10784;50.578;17.878;2022-11-12T08:37:09;9.60;;;5.07;;
21251;SDS011;10784;50.578;17.878;2022-11-12T08:40:00;9.67;;;4.60;;
21251;SDS011;10784;50.578;17.878;2022-11-12T08:43:01;6.72;;;4.10;;
21251;SDS011;10784;50.578;17.878;2022-11-12T08:45:52;6.18;;;3.05;;
21251;SDS011;10784;50.578;17.878;2022-11-12T08:48:43;6.55;;;3.78;;
21251;SDS011;10784;50.578;17.878;2022-11-12T08:51:35;12.50;;;3.33;;
21251;SDS011;10784;50.578;17.878;2022-11-12T08:54:26;11.57;;;3.58;;
21251;SDS011;10784;50.578;17.878;2022-11-12T08:57:17;5.10;;;2.70;;
21251;SDS011;10784;50.578;17.878;2022-11-12T09:00:08;3.58;;;2.30;;
21251;SDS011;10784;50.578;17.878;2022-11-12T09:03:03;8.38;;;2.20;;
21251;SDS011;10784;50.578;17.878;2022-11-12T09:05:54;4.82;;;2.22;;
21251;SDS011;10784;50.578;17.878;2022-11-12T09:08:46;5.88;;;2.00;;
21251;SDS011;10784;50.578;17.878;2022-11-12T09:11:37;2.20;;;1.60;;
21251;SDS011;10784;50.578;17.878;2022-11-12T09:14:28;10.02;;;1.95;;
21251;SDS011;10784;50.578;17.878;2022-11-12T09:17:19;7.30;;;2.72;;
21251;SDS011;10784;50.578;17.878;2022-11-12T09:20:11;3.92;;;2.28;;
21251;SDS011;10784;50.578;17.878;2022-11-12T09:23:04;3.88;;;2.60;;
21251;SDS011;10784;50.578;17.878;2022-11-12T09:25:56;4.32;;;2.10;;
21251;SDS011;10784;50.578;17.878;2022-11-12T09:28:47;7.23;;;2.60;;
21251;SDS011;10784;50.578;17.878;2022-11-12T09:31:39;2.65;;;1.80;;
21251;SDS011;10784;50.578;17.878;2022-11-12T09:34:30;5.27;;;2.67;;
21251;SDS011;10784;50.578;17.878;2022-11-12T09:37:24;3.88;;;2.80;;
21251;SDS011;10784;50.578;17.878;2022-11-12T09:40:17;6.00;;;2.67;;
21251;SDS011;10784;50.578;17.878;2022-11-12T09:43:11;4.38;;;2.47;;
21251;SDS011;10784;50.578;17.878;2022-11-12T09:52:18;6.60;;;2.92;;
21251;SDS011;10784;50.578;17.878;2022-11-12T09:58:04;6.32;;;2.45;;
21251;SDS011;10784;50.578;17.878;2022-11-12T10:00:57;5.45;;;2.28;;
21251;SDS011;10784;50.578;17.878;2022-11-12T10:10:08;6.68;;;3.05;;
21251;SDS011;10784;50.578;17.878;2022-11-12T10:16:11;8.02;;;2.47;;
21251;SDS011;10784;50.578;17.878;2022-11-12T10:19:44;3.78;;;2.15;;
21251;SDS011;10784;50.578;17.878;2022-11-12T10:22:42;4.93;;;2.35;;
21251;SDS011;10784;50.578;17.878;2022-11-12T10:25:35;5.45;;;3.00;;
21251;SDS011;10784;50.578;17.878;2022-11-12T10:28:29;7.57;;;2.13;;
21251;SDS011;10784;50.578;17.878;2022-11-12T10:31:28;5.13;;;2.45;;
21251;SDS011;10784;50.578;17.878;2022-11-12T10:34:22;6.53;;;2.67;;
21251;SDS011;10784;50.578;17.878;2022-11-12T10:37:20;4.05;;;2.55;;
21251;SDS011;10784;50.578;17.878;2022-11-12T10:46:26;5.68;;;2.35;;
21251;SDS011;10784;50.578;17.878;2022-11-12T10:52:22;5.43;;;1.88;;
21251;SDS011;10784;50.578;17.878;2022-11-12T10:55:18;4.65;;;2.05;;
21251;SDS011;10784;50.578;17.878;2022-11-12T11:01:02;5.88;;;2.80;;
21251;SDS011;10784;50.578;17.878;2022-11-12T11:03:57;4.90;;;2.17;;
21251;SDS011;10784;50.578;17.878;2022-11-12T11:06:56;4.97;;;2.50;;
21251;SDS011;10784;50.578;17.878;2022-11-12T11:09:54;6.40;;;2.53;;
21251;SDS011;10784;50.578;17.878;2022-11-12T11:12:45;8.93;;;3.78;;
21251;SDS011;10784;50.578;17.878;2022-11-12T11:15:37;3.53;;;2.80;;
21251;SDS011;10784;50.578;17.878;2022-11-12T11:30:06;3.67;;;1.97;;
21251;SDS011;10784;50.578;17.878;2022-11-12T11:33:01;6.75;;;3.00;;
21251;SDS011;10784;50.578;17.878;2022-11-12T11:36:15;11.60;;;3.55;;
21251;SDS011;10784;50.578;17.878;2022-11-12T11:45:19;5.47;;;2.63;;
21251;SDS011;10784;50.578;17.878;2022-11-12T11:57:11;2.53;;;1.40;;
21251;SDS011;10784;50.578;17.878;2022-11-12T12:18:30;9.45;;;1.63;;
21251;SDS011;10784;50.578;17.878;2022-11-12T12:21:24;3.58;;;2.13;;
21251;SDS011;10784;50.578;17.878;2022-11-12T12:24:20;7.22;;;3.20;;
21251;SDS011;10784;50.578;17.878;2022-11-12T12:27:14;4.13;;;2.45;;
21251;SDS011;10784;50.578;17.878;2022-11-12T12:30:16;5.45;;;1.85;;
21251;SDS011;10784;50.578;17.878;2022-11-12T12:36:07;5.72;;;1.98;;
21251;SDS011;10784;50.578;17.878;2022-11-12T12:42:02;3.58;;;2.05;;
21251;SDS011;10784;50.578;17.878;2022-11-12T12:44:58;5.22;;;1.88;;
21251;SDS011;10784;50.578;17.878;2022-11-12T12:47:55;3.42;;;1.63;;
21251;SDS011;10784;50.578;17.878;2022-11-12T12:50:47;3.28;;;1.70;;
21251;SDS011;10784;50.578;17.878;2022-11-12T12:53:40;7.47;;;2.10;;
21251;SDS011;10784;50.578;17.878;2022-11-12T12:59:22;6.07;;;1.90;;
21251;SDS011;10784;50.578;17.878;2022-11-12T13:05:05;4.43;;;2.13;;
21251;SDS011;10784;50.578;17.878;2022-11-12T13:08:12;7.07;;;2.35;;
21251;SDS011;10784;50.578;17.878;2022-11-12T13:11:04;3.85;;;2.10;;
21251;SDS011;10784;50.578;17.878;2022-11-12T13:13:55;3.43;;;1.90;;
21251;SDS011;10784;50.578;17.878;2022-11-12T13:25:29;7.05;;;2.83;;
21251;SDS011;10784;50.578;17.878;2022-11-12T13:28:20;6.80;;;2.85;;
21251;SDS011;10784;50.578;17.878;2022-11-12T13:31:27;8.48;;;2.63;;
21251;SDS011;10784;50.578;17.878;2022-11-12T13:34:24;5.88;;;2.58;;
21251;SDS011;10784;50.578;17.878;2022-11-12T13:37:19;8.88;;;2.30;;
21251;SDS011;10784;50.578;17.878;2022-11-12T13:40:12;5.18;;;2.13;;
21251;SDS011;10784;50.578;17.878;2022-11-12T13:49:02;3.90;;;2.25;;
21251;SDS011;10784;50.578;17.878;2022-11-12T13:51:57;5.32;;;2.05;;
21251;SDS011;10784;50.578;17.878;2022-11-12T13:54:59;4.28;;;2.53;;
21251;SDS011;10784;50.578;17.878;2022-11-12T13:57:52;10.35;;;3.63;;
21251;SDS011;10784;50.578;17.878;2022-11-12T14:00:57;6.72;;;2.20;;
21251;SDS011;10784;50.578;17.878;2022-11-12T14:03:50;3.95;;;1.92;;
21251;SDS011;10784;50.578;17.878;2022-11-12T14:18:10;5.43;;;1.33;;
21251;SDS011;10784;50.578;17.878;2022-11-12T14:21:05;3.08;;;1.88;;
21251;SDS011;10784;50.578;17.878;2022-11-12T14:23:56;2.83;;;1.88;;
21251;SDS011;10784;50.578;17.878;2022-11-12T14:26:48;3.90;;;2.00;;
21251;SDS011;10784;50.578;17.878;2022-11-12T14:29:39;3.88;;;2.30;;
21251;SDS011;10784;50.578;17.878;2022-11-12T14:32:34;3.75;;;2.30;;
21251;SDS011;10784;50.578;17.878;2022-11-12T14:38:25;8.35;;;2.22;;
21251;SDS011;10784;50.578;17.878;2022-11-12T14:41:24;5.85;;;2.40;;
21251;SDS011;10784;50.578;17.878;2022-11-12T14:44:19;3.83;;;1.73;;
21251;SDS011;10784;50.578;17.878;2022-11-12T14:47:11;4.50;;;2.00;;
21251;SDS011;10784;50.578;17.878;2022-11-12T14:50:02;8.63;;;4.10;;
21251;SDS011;10784;50.578;17.878;2022-11-12T14:56:20;3.80;;;2.17;;
21251;SDS011;10784;50.578;17.878;2022-11-12T14:59:12;8.05;;;2.88;;
21251;SDS011;10784;50.578;17.878;2022-11-12T15:02:09;7.93;;;3.17;;
21251;SDS011;10784;50.578;17.878;2022-11-12T15:05:22;13.70;;;4.18;;
21251;SDS011;10784;50.578;17.878;2022-11-12T15:08:26;9.07;;;3.80;;
21251;SDS011;10784;50.578;17.878;2022-11-12T15:14:22;12.77;;;6.22;;
21251;SDS011;10784;50.578;17.878;2022-11-12T15:17:34;14.55;;;6.40;;
21251;SDS011;10784;50.578;17.878;2022-11-12T15:20:26;15.52;;;7.07;;
21251;SDS011;10784;50.578;17.878;2022-11-12T15:23:18;19.20;;;6.25;;
21251;SDS011;10784;50.578;17.878;2022-11-12T15:26:12;15.43;;;5.88;;
21251;SDS011;10784;50.578;17.878;2022-11-12T15:35:03;23.65;;;10.85;;
21251;SDS011;10784;50.578;17.878;2022-11-12T15:37:54;30.98;;;13.25;;
21251;SDS011;10784;50.578;17.878;2022-11-12T15:40:45;16.13;;;7.78;;
21251;SDS011;10784;50.578;17.878;2022-11-12T15:43:47;21.50;;;10.30;;
21251;SDS011;10784;50.578;17.878;2022-11-12T15:46:38;33.57;;;14.50;;
21251;SDS011;10784;50.578;17.878;2022-11-12T15:49:29;38.47;;;15.23;;
21251;SDS011;10784;50.578;17.878;2022-11-12T15:52:21;32.22;;;14.50;;
21251;SDS011;10784;50.578;17.878;2022-11-12T15:55:13;38.50;;;17.90;;
21251;SDS011;10784;50.578;17.878;2022-11-12T15:58:15;42.42;;;19.48;;
21251;SDS011;10784;50.578;17.878;2022-11-12T16:01:09;23.67;;;10.73;;
21251;SDS011;10784;50.578;17.878;2022-11-12T16:04:01;24.25;;;9.63;;
21251;SDS011;10784;50.578;17.878;2022-11-12T16:06:52;19.30;;;8.25;;
21251;SDS011;10784;50.578;17.878;2022-11-12T16:09:43;22.35;;;10.45;;
21251;SDS011;10784;50.578;17.878;2022-11-12T16:12:34;30.00;;;12.40;;
21251;SDS011;10784;50.578;17.878;2022-11-12T16:15:25;25.85;;;11.70;;
21251;SDS011;10784;50.578;17.878;2022-11-12T16:18:17;46.47;;;14.80;;
21251;SDS011;10784;50.578;17.878;2022-11-12T16:21:08;70.50;;;19.33;;
21251;SDS011;10784;50.578;17.878;2022-11-12T16:23:59;40.00;;;14.80;;
21251;SDS011;10784;50.578;17.878;2022-11-12T16:26:50;47.85;;;16.02;;
21251;SDS011;10784;50.578;17.878;2022-11-12T16:29:42;43.75;;;14.82;;
21251;SDS011;10784;50.578;17.878;2022-11-12T16:32:33;51.70;;;17.25;;
21251;SDS011;10784;50.578;17.878;2022-11-12T16:35:27;49.20;;;19.83;;
21251;SDS011;10784;50.578;17.878;2022-11-12T16:38:19;36.75;;;12.88;;
21251;SDS011;10784;50.578;17.878;2022-11-12T16:44:02;34.90;;;12.77;;
21251;SDS011;10784;50.578;17.878;2022-11-12T16:46:53;34.15;;;13.40;;
21251;SDS011;10784;50.578;17.878;2022-11-12T16:49:44;33.83;;;14.30;;
21251;SDS011;10784;50.578;17.878;2022-11-12T16:52:36;46.42;;;17.73;;
21251;SDS011;10784;50.578;17.878;2022-11-12T16:55:27;57.90;;;23.43;;
21251;SDS011;10784;50.578;17.878;2022-11-12T16:58:18;46.55;;;15.43;;
21251;SDS011;10784;50.578;17.878;2022-11-12T17:01:11;57.25;;;17.50;;
21251;SDS011;10784;50.578;17.878;2022-11-12T17:04:03;41.35;;;17.65;;
21251;SDS011;10784;50.578;17.878;2022-11-12T17:06:54;53.10;;;19.25;;
21251;SDS011;10784;50.578;17.878;2022-11-12T17:09:46;61.90;;;21.35;;
21251;SDS011;10784;50.578;17.878;2022-11-12T17:12:37;56.08;;;21.40;;
21251;SDS011;10784;50.578;17.878;2022-11-12T17:15:29;60.90;;;24.80;;
21251;SDS011;10784;50.578;17.878;2022-11-12T17:18:20;85.80;;;32.25;;
21251;SDS011;10784;50.578;17.878;2022-11-12T17:21:12;144.75;;;46.08;;
21251;SDS011;10784;50.578;17.878;2022-11-12T17:24:03;457.75;;;116.30;;
21251;SDS011;10784;50.578;17.878;2022-11-12T17:26:55;320.23;;;101.75;;
21251;SDS011;10784;50.578;17.878;2022-11-12T17:29:47;159.48;;;58.10;;
21251;SDS011;10784;50.578;17.878;2022-11-12T17:32:38;221.43;;;80.53;;
21251;SDS011;10784;50.578;17.878;2022-11-12T17:35:31;135.27;;;55.10;;
21251;SDS011;10784;50.578;17.878;2022-11-12T17:38:22;95.50;;;35.42;;
21251;SDS011;10784;50.578;17.878;2022-11-12T17:41:14;111.13;;;36.53;;
21251;SDS011;10784;50.578;17.878;2022-11-12T17:46:56;161.77;;;51.03;;
21251;SDS011;10784;50.578;17.878;2022-11-12T17:49:48;152.20;;;48.22;;
21251;SDS011;10784;50.578;17.878;2022-11-12T17:52:39;137.23;;;44.70;;
21251;SDS011;10784;50.578;17.878;2022-11-12T17:55:30;98.03;;;34.10;;
21251;SDS011;10784;50.578;17.878;2022-11-12T17:58:21;115.10;;;35.83;;
21251;SDS011;10784;50.578;17.878;2022-11-12T18:01:19;95.13;;;32.30;;
21251;SDS011;10784;50.578;17.878;2022-11-12T18:04:11;84.97;;;31.33;;
21251;SDS011;10784;50.578;17.878;2022-11-12T18:07:02;84.90;;;31.73;;
21251;SDS011;10784;50.578;17.878;2022-11-12T18:09:54;96.75;;;32.38;;
21251;SDS011;10784;50.578;17.878;2022-11-12T18:12:45;69.17;;;26.83;;
21251;SDS011;10784;50.578;17.878;2022-11-12T18:15:36;80.78;;;25.58;;
21251;SDS011;10784;50.578;17.878;2022-11-12T18:18:28;68.30;;;25.67;;
21251;SDS011;10784;50.578;17.878;2022-11-12T18:21:19;71.22;;;28.88;;
21251;SDS011;10784;50.578;17.878;2022-11-12T18:24:11;63.05;;;27.15;;
21251;SDS011;10784;50.578;17.878;2022-11-12T18:27:03;92.15;;;37.22;;
21251;SDS011;10784;50.578;17.878;2022-11-12T18:29:54;81.80;;;32.92;;
21251;SDS011;10784;50.578;17.878;2022-11-12T18:32:45;69.88;;;26.20;;
21251;SDS011;10784;50.578;17.878;2022-11-12T18:35:36;78.67;;;28.33;;
21251;SDS011;10784;50.578;17.878;2022-11-12T18:38:27;98.35;;;32.28;;
21251;SDS011;10784;50.578;17.878;2022-11-12T18:41:23;102.18;;;30.50;;
21251;SDS011;10784;50.578;17.878;2022-11-12T18:44:16;93.47;;;37.05;;
21251;SDS011;10784;50.578;17.878;2022-11-12T18:47:14;63.58;;;26.70;;
21251;SDS011;10784;50.578;17.878;2022-11-12T18:50:05;62.58;;;25.50;;
21251;SDS011;10784;50.578;17.878;2022-11-12T18:52:58;78.32;;;25.88;;
21251;SDS011;10784;50.578;17.878;2022-11-12T18:55:50;64.97;;;26.08;;
21251;SDS011;10784;50.578;17.878;2022-11-12T18:58:41;74.60;;;30.08;;
21251;SDS011;10784;50.578;17.878;2022-11-12T19:01:32;67.05;;;27.65;;
21251;SDS011;10784;50.578;17.878;2022-11-12T19:04:24;55.35;;;19.63;;
21251;SDS011;10784;50.578;17.878;2022-11-12T19:07:16;86.93;;;35.17;;
21251;SDS011;10784;50.578;17.878;2022-11-12T19:10:07;93.03;;;34.92;;
21251;SDS011;10784;50.578;17.878;2022-11-12T19:13:04;82.55;;;33.13;;
21251;SDS011;10784;50.578;17.878;2022-11-12T19:18:47;90.43;;;36.55;;
21251;SDS011;10784;50.578;17.878;2022-11-12T19:21:39;106.78;;;36.95;;
21251;SDS011;10784;50.578;17.878;2022-11-12T19:24:30;88.60;;;35.95;;
21251;SDS011;10784;50.578;17.878;2022-11-12T19:27:21;88.97;;;35.40;;
21251;SDS011;10784;50.578;17.878;2022-11-12T19:30:12;92.22;;;35.47;;
21251;SDS011;10784;50.578;17.878;2022-11-12T19:33:04;145.55;;;47.42;;
21251;SDS011;10784;50.578;17.878;2022-11-12T19:35:55;192.07;;;59.72;;
21251;SDS011;10784;50.578;17.878;2022-11-12T19:38:46;113.32;;;40.47;;
21251;SDS011;10784;50.578;17.878;2022-11-12T19:41:37;124.72;;;37.47;;
21251;SDS011;10784;50.578;17.878;2022-11-12T19:44:29;100.25;;;35.47;;
21251;SDS011;10784;50.578;17.878;2022-11-12T19:47:19;71.97;;;27.80;;
21251;SDS011;10784;50.578;17.878;2022-11-12T19:50:11;61.30;;;24.75;;
21251;SDS011;10784;50.578;17.878;2022-11-12T19:53:02;66.40;;;27.53;;
21251;SDS011;10784;50.578;17.878;2022-11-12T19:55:57;67.88;;;26.90;;
21251;SDS011;10784;50.578;17.878;2022-11-12T19:58:48;60.72;;;25.42;;
21251;SDS011;10784;50.578;17.878;2022-11-12T20:01:40;90.20;;;35.88;;
21251;SDS011;10784;50.578;17.878;2022-11-12T20:04:31;81.03;;;34.70;;
21251;SDS011;10784;50.578;17.878;2022-11-12T20:07:23;65.15;;;29.33;;
21251;SDS011;10784;50.578;17.878;2022-11-12T20:10:18;77.20;;;27.45;;
21251;SDS011;10784;50.578;17.878;2022-11-12T20:13:09;56.00;;;22.83;;
21251;SDS011;10784;50.578;17.878;2022-11-12T20:16:07;49.30;;;20.70;;
21251;SDS011;10784;50.578;17.878;2022-11-12T20:18:58;55.38;;;20.40;;
21251;SDS011;10784;50.578;17.878;2022-11-12T20:21:51;63.17;;;22.70;;
21251;SDS011;10784;50.578;17.878;2022-11-12T20:24:42;75.07;;;24.90;;
21251;SDS011;10784;50.578;17.878;2022-11-12T20:27:33;62.85;;;25.08;;
21251;SDS011;10784;50.578;17.878;2022-11-12T20:30:24;71.53;;;26.73;;
21251;SDS011;10784;50.578;17.878;2022-11-12T20:33:15;90.83;;;34.77;;
21251;SDS011;10784;50.578;17.878;2022-11-12T20:36:08;104.25;;;40.88;;
21251;SDS011;10784;50.578;17.878;2022-11-12T20:38:59;111.97;;;43.15;;
21251;SDS011;10784;50.578;17.878;2022-11-12T20:41:52;113.97;;;44.83;;
21251;SDS011;10784;50.578;17.878;2022-11-12T20:44:43;118.78;;;43.30;;
21251;SDS011;10784;50.578;17.878;2022-11-12T20:47:34;107.67;;;50.63;;